sensor_id;sensor_type;location;lat;lon;timestamp;P1;durP1;ratioP1;P2;durP2;ratioP2
52126;SDS011;38120;53.176;6.614;2022-09-09T00:03:54;12.38;;;9.93;;
52126;SDS011;38120;53.176;6.614;2022-09-09T00:06:29;11.60;;;9.35;;
52126;SDS011;38120;53.176;6.614;2022-09-09T00:09:00;13.93;;;10.30;;
52126;SDS011;38120;53.176;6.614;2022-09-09T00:12:14;14.82;;;10.75;;
52126;SDS011;38120;53.176;6.614;2022-09-09T00:27:56;17.13;;;10.70;;
52126;SDS011;38120;53.176;6.614;2022-09-09T00:30:32;14.07;;;11.88;;
52126;SDS011;38120;53.176;6.614;2022-09-09T00:33:01;17.65;;;10.95;;
52126;SDS011;38120;53.176;6.614;2022-09-09T00:35:37;15.00;;;11.55;;
52126;SDS011;38120;53.176;6.614;2022-09-09T00:38:10;13.68;;;10.55;;
52126;SDS011;38120;53.176;6.614;2022-09-09T00:40:50;15.90;;;12.48;;
52126;SDS011;38120;53.176;6.614;2022-09-09T00:43:31;13.32;;;11.93;;
52126;SDS011;38120;53.176;6.614;2022-09-09T00:49:15;14.13;;;11.55;;
52126;SDS011;38120;53.176;6.614;2022-09-09T00:54:40;15.75;;;11.25;;
52126;SDS011;38120;53.176;6.614;2022-09-09T00:57:26;23.63;;;11.35;;
52126;SDS011;38120;53.176;6.614;2022-09-09T01:02:57;14.75;;;10.98;;
52126;SDS011;38120;53.176;6.614;2022-09-09T01:05:30;16.83;;;10.68;;
52126;SDS011;38120;53.176;6.614;2022-09-09T01:08:00;16.20;;;10.57;;
52126;SDS011;38120;53.176;6.614;2022-09-09T01:16:11;14.68;;;10.95;;
52126;SDS011;38120;53.176;6.614;2022-09-09T01:18:43;15.80;;;10.65;;
52126;SDS011;38120;53.176;6.614;2022-09-09T01:26:26;14.57;;;13.07;;
52126;SDS011;38120;53.176;6.614;2022-09-09T01:28:54;14.63;;;10.75;;
52126;SDS011;38120;53.176;6.614;2022-09-09T01:31:31;15.20;;;11.63;;
52126;SDS011;38120;53.176;6.614;2022-09-09T01:34:00;14.85;;;11.15;;
52126;SDS011;38120;53.176;6.614;2022-09-09T01:36:31;15.05;;;11.18;;
52126;SDS011;38120;53.176;6.614;2022-09-09T01:39:01;14.95;;;12.18;;
52126;SDS011;38120;53.176;6.614;2022-09-09T01:41:27;14.52;;;11.88;;
52126;SDS011;38120;53.176;6.614;2022-09-09T01:43:53;17.92;;;12.25;;
52126;SDS011;38120;53.176;6.614;2022-09-09T01:46:24;14.43;;;11.80;;
52126;SDS011;38120;53.176;6.614;2022-09-09T01:48:57;14.18;;;11.23;;
52126;SDS011;38120;53.176;6.614;2022-09-09T01:51:25;12.52;;;11.13;;
52126;SDS011;38120;53.176;6.614;2022-09-09T01:53:51;15.55;;;11.75;;
52126;SDS011;38120;53.176;6.614;2022-09-09T02:04:37;14.77;;;11.73;;
52126;SDS011;38120;53.176;6.614;2022-09-09T02:09:59;15.48;;;11.25;;
52126;SDS011;38120;53.176;6.614;2022-09-09T02:12:35;19.10;;;12.02;;
52126;SDS011;38120;53.176;6.614;2022-09-09T02:15:05;17.80;;;12.27;;
52126;SDS011;38120;53.176;6.614;2022-09-09T02:17:38;15.35;;;11.85;;
52126;SDS011;38120;53.176;6.614;2022-09-09T02:20:08;14.95;;;13.15;;
52126;SDS011;38120;53.176;6.614;2022-09-09T02:22:39;14.98;;;12.13;;
52126;SDS011;38120;53.176;6.614;2022-09-09T02:25:09;15.85;;;12.23;;
52126;SDS011;38120;53.176;6.614;2022-09-09T02:27:40;19.48;;;12.77;;
52126;SDS011;38120;53.176;6.614;2022-09-09T02:30:08;18.25;;;12.95;;
52126;SDS011;38120;53.176;6.614;2022-09-09T02:32:35;15.55;;;11.65;;
52126;SDS011;38120;53.176;6.614;2022-09-09T02:35:07;15.80;;;11.63;;
52126;SDS011;38120;53.176;6.614;2022-09-09T02:37:36;15.07;;;10.00;;
52126;SDS011;38120;53.176;6.614;2022-09-09T02:40:04;18.05;;;13.13;;
52126;SDS011;38120;53.176;6.614;2022-09-09T02:42:38;16.55;;;12.40;;
52126;SDS011;38120;53.176;6.614;2022-09-09T02:45:05;19.60;;;13.27;;
52126;SDS011;38120;53.176;6.614;2022-09-09T02:47:35;17.05;;;12.48;;
52126;SDS011;38120;53.176;6.614;2022-09-09T02:50:13;14.25;;;11.40;;
52126;SDS011;38120;53.176;6.614;2022-09-09T02:52:46;12.82;;;10.45;;
52126;SDS011;38120;53.176;6.614;2022-09-09T02:55:45;14.82;;;11.82;;
52126;SDS011;38120;53.176;6.614;2022-09-09T02:58:19;14.45;;;11.02;;
52126;SDS011;38120;53.176;6.614;2022-09-09T03:00:46;16.30;;;11.93;;
52126;SDS011;38120;53.176;6.614;2022-09-09T03:03:13;18.08;;;12.13;;
52126;SDS011;38120;53.176;6.614;2022-09-09T03:05:41;14.60;;;10.20;;
52126;SDS011;38120;53.176;6.614;2022-09-09T03:10:34;14.50;;;11.55;;
52126;SDS011;38120;53.176;6.614;2022-09-09T03:13:00;14.73;;;10.70;;
52126;SDS011;38120;53.176;6.614;2022-09-09T03:15:26;12.85;;;10.10;;
52126;SDS011;38120;53.176;6.614;2022-09-09T03:17:55;12.43;;;10.50;;
52126;SDS011;38120;53.176;6.614;2022-09-09T03:20:22;16.40;;;9.73;;
52126;SDS011;38120;53.176;6.614;2022-09-09T03:22:48;12.13;;;9.38;;
52126;SDS011;38120;53.176;6.614;2022-09-09T03:25:14;12.18;;;8.35;;
52126;SDS011;38120;53.176;6.614;2022-09-09T03:27:40;12.60;;;8.68;;
52126;SDS011;38120;53.176;6.614;2022-09-09T03:30:06;13.77;;;8.82;;
52126;SDS011;38120;53.176;6.614;2022-09-09T03:32:32;14.90;;;8.60;;
52126;SDS011;38120;53.176;6.614;2022-09-09T03:34:58;12.63;;;7.68;;
52126;SDS011;38120;53.176;6.614;2022-09-09T03:37:23;13.85;;;8.52;;
52126;SDS011;38120;53.176;6.614;2022-09-09T03:39:49;10.93;;;7.20;;
52126;SDS011;38120;53.176;6.614;2022-09-09T03:42:15;12.27;;;8.90;;
52126;SDS011;38120;53.176;6.614;2022-09-09T03:44:44;12.93;;;7.75;;
52126;SDS011;38120;53.176;6.614;2022-09-09T03:47:16;10.15;;;7.60;;
52126;SDS011;38120;53.176;6.614;2022-09-09T03:49:46;18.23;;;7.80;;
52126;SDS011;38120;53.176;6.614;2022-09-09T03:52:13;11.88;;;6.82;;
52126;SDS011;38120;53.176;6.614;2022-09-09T03:54:40;13.85;;;7.32;;
52126;SDS011;38120;53.176;6.614;2022-09-09T03:57:08;10.20;;;6.60;;
52126;SDS011;38120;53.176;6.614;2022-09-09T03:59:36;10.90;;;6.10;;
52126;SDS011;38120;53.176;6.614;2022-09-09T04:02:03;9.90;;;5.43;;
52126;SDS011;38120;53.176;6.614;2022-09-09T04:04:29;10.32;;;5.45;;
52126;SDS011;38120;53.176;6.614;2022-09-09T04:06:55;8.90;;;4.75;;
52126;SDS011;38120;53.176;6.614;2022-09-09T04:09:20;7.23;;;4.93;;
52126;SDS011;38120;53.176;6.614;2022-09-09T04:11:46;12.70;;;4.20;;
52126;SDS011;38120;53.176;6.614;2022-09-09T04:14:12;6.03;;;3.43;;
52126;SDS011;38120;53.176;6.614;2022-09-09T04:16:38;7.82;;;3.85;;
52126;SDS011;38120;53.176;6.614;2022-09-09T04:19:04;9.25;;;4.20;;
52126;SDS011;38120;53.176;6.614;2022-09-09T04:21:31;8.40;;;4.00;;
52126;SDS011;38120;53.176;6.614;2022-09-09T04:23:57;7.82;;;3.83;;
52126;SDS011;38120;53.176;6.614;2022-09-09T04:26:23;7.43;;;3.70;;
52126;SDS011;38120;53.176;6.614;2022-09-09T04:28:49;8.55;;;3.63;;
52126;SDS011;38120;53.176;6.614;2022-09-09T04:31:19;8.70;;;4.60;;
52126;SDS011;38120;53.176;6.614;2022-09-09T04:33:48;7.47;;;4.18;;
52126;SDS011;38120;53.176;6.614;2022-09-09T04:38:40;7.57;;;4.40;;
52126;SDS011;38120;53.176;6.614;2022-09-09T04:41:06;6.13;;;4.03;;
52126;SDS011;38120;53.176;6.614;2022-09-09T04:43:32;8.93;;;4.63;;
52126;SDS011;38120;53.176;6.614;2022-09-09T04:46:00;9.10;;;4.93;;
52126;SDS011;38120;53.176;6.614;2022-09-09T04:48:25;10.55;;;5.13;;
52126;SDS011;38120;53.176;6.614;2022-09-09T04:50:59;8.25;;;4.72;;
52126;SDS011;38120;53.176;6.614;2022-09-09T04:53:26;7.07;;;4.75;;
52126;SDS011;38120;53.176;6.614;2022-09-09T04:56:05;9.82;;;5.55;;
52126;SDS011;38120;53.176;6.614;2022-09-09T04:58:33;8.50;;;5.65;;
52126;SDS011;38120;53.176;6.614;2022-09-09T05:01:09;10.38;;;6.35;;
52126;SDS011;38120;53.176;6.614;2022-09-09T05:03:37;10.30;;;6.57;;
52126;SDS011;38120;53.176;6.614;2022-09-09T05:06:13;9.65;;;7.53;;
52126;SDS011;38120;53.176;6.614;2022-09-09T05:08:41;10.13;;;7.45;;
52126;SDS011;38120;53.176;6.614;2022-09-09T05:11:18;12.60;;;7.80;;
52126;SDS011;38120;53.176;6.614;2022-09-09T05:13:51;12.00;;;7.30;;
52126;SDS011;38120;53.176;6.614;2022-09-09T05:16:18;9.35;;;7.50;;
52126;SDS011;38120;53.176;6.614;2022-09-09T05:18:44;13.18;;;8.82;;
52126;SDS011;38120;53.176;6.614;2022-09-09T05:21:11;16.85;;;8.05;;
52126;SDS011;38120;53.176;6.614;2022-09-09T05:23:37;10.88;;;7.65;;
52126;SDS011;38120;53.176;6.614;2022-09-09T05:26:04;12.32;;;8.95;;
52126;SDS011;38120;53.176;6.614;2022-09-09T05:28:30;10.98;;;8.63;;
52126;SDS011;38120;53.176;6.614;2022-09-09T05:30:59;13.98;;;9.75;;
52126;SDS011;38120;53.176;6.614;2022-09-09T05:33:29;10.98;;;9.50;;
52126;SDS011;38120;53.176;6.614;2022-09-09T05:35:56;11.88;;;8.70;;
52126;SDS011;38120;53.176;6.614;2022-09-09T05:38:33;20.00;;;9.50;;
52126;SDS011;38120;53.176;6.614;2022-09-09T05:41:00;13.50;;;10.35;;
52126;SDS011;38120;53.176;6.614;2022-09-09T05:43:27;14.60;;;10.65;;
52126;SDS011;38120;53.176;6.614;2022-09-09T05:46:14;18.70;;;13.50;;
52126;SDS011;38120;53.176;6.614;2022-09-09T05:48:40;13.80;;;11.57;;
52126;SDS011;38120;53.176;6.614;2022-09-09T05:51:11;13.10;;;9.07;;
52126;SDS011;38120;53.176;6.614;2022-09-09T05:53:40;13.27;;;10.27;;
52126;SDS011;38120;53.176;6.614;2022-09-09T05:56:16;14.95;;;10.80;;
52126;SDS011;38120;53.176;6.614;2022-09-09T05:58:43;13.98;;;11.80;;
52126;SDS011;38120;53.176;6.614;2022-09-09T06:01:13;17.65;;;13.93;;
52126;SDS011;38120;53.176;6.614;2022-09-09T06:03:41;14.90;;;12.27;;
52126;SDS011;38120;53.176;6.614;2022-09-09T06:06:09;14.80;;;11.57;;
52126;SDS011;38120;53.176;6.614;2022-09-09T06:08:38;15.60;;;11.15;;
52126;SDS011;38120;53.176;6.614;2022-09-09T06:11:06;14.73;;;10.93;;
52126;SDS011;38120;53.176;6.614;2022-09-09T06:13:34;15.10;;;12.18;;
52126;SDS011;38120;53.176;6.614;2022-09-09T06:16:02;12.88;;;11.05;;
52126;SDS011;38120;53.176;6.614;2022-09-09T06:18:29;17.92;;;10.63;;
52126;SDS011;38120;53.176;6.614;2022-09-09T06:21:02;16.95;;;11.30;;
52126;SDS011;38120;53.176;6.614;2022-09-09T06:23:29;13.80;;;9.80;;
52126;SDS011;38120;53.176;6.614;2022-09-09T06:28:45;11.65;;;10.07;;
52126;SDS011;38120;53.176;6.614;2022-09-09T06:31:13;15.60;;;9.65;;
52126;SDS011;38120;53.176;6.614;2022-09-09T06:33:41;12.65;;;9.18;;
52126;SDS011;38120;53.176;6.614;2022-09-09T06:36:07;12.07;;;9.80;;
52126;SDS011;38120;53.176;6.614;2022-09-09T06:38:40;14.43;;;9.68;;
52126;SDS011;38120;53.176;6.614;2022-09-09T06:41:09;12.15;;;9.70;;
52126;SDS011;38120;53.176;6.614;2022-09-09T06:43:37;11.35;;;9.77;;
52126;SDS011;38120;53.176;6.614;2022-09-09T06:46:08;13.63;;;9.07;;
52126;SDS011;38120;53.176;6.614;2022-09-09T06:48:35;14.38;;;10.20;;
52126;SDS011;38120;53.176;6.614;2022-09-09T06:51:03;14.95;;;10.43;;
52126;SDS011;38120;53.176;6.614;2022-09-09T06:53:33;13.73;;;10.13;;
52126;SDS011;38120;53.176;6.614;2022-09-09T06:56:00;12.10;;;9.30;;
52126;SDS011;38120;53.176;6.614;2022-09-09T06:58:48;11.98;;;9.57;;
52126;SDS011;38120;53.176;6.614;2022-09-09T07:01:19;14.18;;;10.30;;
52126;SDS011;38120;53.176;6.614;2022-09-09T07:03:49;12.13;;;8.93;;
52126;SDS011;38120;53.176;6.614;2022-09-09T07:06:20;11.70;;;9.32;;
52126;SDS011;38120;53.176;6.614;2022-09-09T07:08:51;12.75;;;7.93;;
52126;SDS011;38120;53.176;6.614;2022-09-09T07:11:19;12.00;;;9.68;;
52126;SDS011;38120;53.176;6.614;2022-09-09T07:13:45;13.13;;;9.45;;
52126;SDS011;38120;53.176;6.614;2022-09-09T07:16:14;15.48;;;9.68;;
52126;SDS011;38120;53.176;6.614;2022-09-09T07:18:42;12.70;;;9.20;;
52126;SDS011;38120;53.176;6.614;2022-09-09T07:21:11;11.13;;;8.73;;
52126;SDS011;38120;53.176;6.614;2022-09-09T07:23:39;11.77;;;7.60;;
52126;SDS011;38120;53.176;6.614;2022-09-09T07:26:10;11.85;;;8.35;;
52126;SDS011;38120;53.176;6.614;2022-09-09T07:28:37;10.38;;;8.75;;
52126;SDS011;38120;53.176;6.614;2022-09-09T07:31:03;13.52;;;9.55;;
52126;SDS011;38120;53.176;6.614;2022-09-09T07:33:33;13.30;;;8.90;;
52126;SDS011;38120;53.176;6.614;2022-09-09T07:36:04;12.90;;;8.63;;
52126;SDS011;38120;53.176;6.614;2022-09-09T07:38:43;10.45;;;9.30;;
52126;SDS011;38120;53.176;6.614;2022-09-09T07:41:16;12.52;;;9.32;;
52126;SDS011;38120;53.176;6.614;2022-09-09T07:43:52;12.57;;;9.60;;
52126;SDS011;38120;53.176;6.614;2022-09-09T07:46:20;10.10;;;8.55;;
52126;SDS011;38120;53.176;6.614;2022-09-09T07:48:49;10.88;;;8.00;;
52126;SDS011;38120;53.176;6.614;2022-09-09T07:51:17;14.07;;;9.20;;
52126;SDS011;38120;53.176;6.614;2022-09-09T07:53:46;10.82;;;8.00;;
52126;SDS011;38120;53.176;6.614;2022-09-09T07:56:13;11.35;;;8.23;;
52126;SDS011;38120;53.176;6.614;2022-09-09T07:58:42;9.30;;;7.30;;
52126;SDS011;38120;53.176;6.614;2022-09-09T08:01:11;9.60;;;7.60;;
52126;SDS011;38120;53.176;6.614;2022-09-09T08:03:43;10.27;;;7.28;;
52126;SDS011;38120;53.176;6.614;2022-09-09T08:06:10;10.77;;;7.65;;
52126;SDS011;38120;53.176;6.614;2022-09-09T08:08:37;9.32;;;7.70;;
52126;SDS011;38120;53.176;6.614;2022-09-09T08:11:13;10.40;;;7.35;;
52126;SDS011;38120;53.176;6.614;2022-09-09T08:13:39;10.50;;;7.40;;
52126;SDS011;38120;53.176;6.614;2022-09-09T08:16:11;12.10;;;7.68;;
52126;SDS011;38120;53.176;6.614;2022-09-09T08:18:41;11.55;;;8.25;;
52126;SDS011;38120;53.176;6.614;2022-09-09T08:21:18;8.30;;;6.55;;
52126;SDS011;38120;53.176;6.614;2022-09-09T08:23:50;9.88;;;6.53;;
52126;SDS011;38120;53.176;6.614;2022-09-09T08:26:18;10.10;;;7.35;;
52126;SDS011;38120;53.176;6.614;2022-09-09T08:28:49;10.07;;;6.30;;
52126;SDS011;38120;53.176;6.614;2022-09-09T08:31:27;9.82;;;6.10;;
52126;SDS011;38120;53.176;6.614;2022-09-09T08:34:02;12.07;;;6.82;;
52126;SDS011;38120;53.176;6.614;2022-09-09T08:36:30;9.45;;;6.57;;
52126;SDS011;38120;53.176;6.614;2022-09-09T08:39:02;10.40;;;6.70;;
52126;SDS011;38120;53.176;6.614;2022-09-09T08:52:52;11.65;;;6.82;;
52126;SDS011;38120;53.176;6.614;2022-09-09T08:58:49;10.00;;;6.63;;
52126;SDS011;38120;53.176;6.614;2022-09-09T09:03:43;12.68;;;5.72;;
52126;SDS011;38120;53.176;6.614;2022-09-09T09:11:55;8.93;;;5.47;;
52126;SDS011;38120;53.176;6.614;2022-09-09T09:14:26;7.95;;;5.82;;
52126;SDS011;38120;53.176;6.614;2022-09-09T09:19:34;8.45;;;5.35;;
52126;SDS011;38120;53.176;6.614;2022-09-09T09:22:10;13.65;;;6.65;;
52126;SDS011;38120;53.176;6.614;2022-09-09T09:35:51;7.90;;;4.97;;
52126;SDS011;38120;53.176;6.614;2022-09-09T09:38:22;8.90;;;4.68;;
52126;SDS011;38120;53.176;6.614;2022-09-09T09:40:53;9.50;;;4.68;;
52126;SDS011;38120;53.176;6.614;2022-09-09T09:43:30;7.60;;;5.15;;
52126;SDS011;38120;53.176;6.614;2022-09-09T09:46:03;7.90;;;5.43;;
52126;SDS011;38120;53.176;6.614;2022-09-09T09:48:29;9.80;;;5.07;;
52126;SDS011;38120;53.176;6.614;2022-09-09T09:51:08;10.90;;;5.00;;
52126;SDS011;38120;53.176;6.614;2022-09-09T09:53:38;11.43;;;5.32;;
52126;SDS011;38120;53.176;6.614;2022-09-09T09:56:05;9.77;;;4.80;;
52126;SDS011;38120;53.176;6.614;2022-09-09T09:58:38;11.15;;;4.70;;
52126;SDS011;38120;53.176;6.614;2022-09-09T10:03:54;12.93;;;5.00;;
52126;SDS011;38120;53.176;6.614;2022-09-09T10:06:31;11.98;;;4.32;;
52126;SDS011;38120;53.176;6.614;2022-09-09T10:08:58;9.93;;;4.65;;
52126;SDS011;38120;53.176;6.614;2022-09-09T10:20:00;12.48;;;4.03;;
52126;SDS011;38120;53.176;6.614;2022-09-09T10:22:35;9.75;;;3.13;;
52126;SDS011;38120;53.176;6.614;2022-09-09T10:33:09;9.25;;;3.70;;
52126;SDS011;38120;53.176;6.614;2022-09-09T10:35:56;10.95;;;3.33;;
52126;SDS011;38120;53.176;6.614;2022-09-09T10:54:32;10.65;;;3.15;;
52126;SDS011;38120;53.176;6.614;2022-09-09T10:57:23;9.40;;;3.33;;
52126;SDS011;38120;53.176;6.614;2022-09-09T10:59:51;6.50;;;2.85;;
52126;SDS011;38120;53.176;6.614;2022-09-09T11:02:28;5.63;;;2.55;;
52126;SDS011;38120;53.176;6.614;2022-09-09T11:05:08;7.65;;;3.17;;
52126;SDS011;38120;53.176;6.614;2022-09-09T11:07:54;9.23;;;2.90;;
52126;SDS011;38120;53.176;6.614;2022-09-09T11:13:18;7.90;;;2.70;;
52126;SDS011;38120;53.176;6.614;2022-09-09T11:15:56;8.73;;;3.05;;
52126;SDS011;38120;53.176;6.614;2022-09-09T11:18:26;8.27;;;2.70;;
52126;SDS011;38120;53.176;6.614;2022-09-09T11:21:00;7.63;;;2.40;;
52126;SDS011;38120;53.176;6.614;2022-09-09T11:23:33;6.55;;;2.53;;
52126;SDS011;38120;53.176;6.614;2022-09-09T11:26:27;10.15;;;2.40;;
52126;SDS011;38120;53.176;6.614;2022-09-09T11:37:03;5.63;;;2.20;;
52126;SDS011;38120;53.176;6.614;2022-09-09T11:42:20;7.38;;;2.38;;
52126;SDS011;38120;53.176;6.614;2022-09-09T11:44:48;9.48;;;2.33;;
52126;SDS011;38120;53.176;6.614;2022-09-09T11:47:21;6.05;;;2.35;;
52126;SDS011;38120;53.176;6.614;2022-09-09T11:50:40;5.82;;;2.40;;
52126;SDS011;38120;53.176;6.614;2022-09-09T11:52:42;5.65;;;1.80;;
52126;SDS011;38120;53.176;6.614;2022-09-09T11:55:26;9.23;;;1.88;;
52126;SDS011;38120;53.176;6.614;2022-09-09T11:58:01;7.45;;;2.17;;
52126;SDS011;38120;53.176;6.614;2022-09-09T12:00:37;8.23;;;2.55;;
52126;SDS011;38120;53.176;6.614;2022-09-09T12:03:31;9.15;;;2.58;;
52126;SDS011;38120;53.176;6.614;2022-09-09T12:06:18;4.30;;;2.58;;
52126;SDS011;38120;53.176;6.614;2022-09-09T12:09:04;5.57;;;2.40;;
52126;SDS011;38120;53.176;6.614;2022-09-09T12:11:31;6.07;;;1.90;;
52126;SDS011;38120;53.176;6.614;2022-09-09T12:13:58;7.25;;;1.90;;
52126;SDS011;38120;53.176;6.614;2022-09-09T12:16:29;9.27;;;2.88;;
52126;SDS011;38120;53.176;6.614;2022-09-09T12:19:14;6.32;;;2.35;;
52126;SDS011;38120;53.176;6.614;2022-09-09T12:25:01;7.80;;;2.50;;
52126;SDS011;38120;53.176;6.614;2022-09-09T12:31:17;8.77;;;2.05;;
52126;SDS011;38120;53.176;6.614;2022-09-09T12:33:33;6.65;;;1.92;;
52126;SDS011;38120;53.176;6.614;2022-09-09T12:36:00;6.32;;;2.13;;
52126;SDS011;38120;53.176;6.614;2022-09-09T12:38:34;6.18;;;2.22;;
52126;SDS011;38120;53.176;6.614;2022-09-09T12:41:01;5.32;;;2.58;;
52126;SDS011;38120;53.176;6.614;2022-09-09T12:43:28;9.75;;;2.67;;
52126;SDS011;38120;53.176;6.614;2022-09-09T12:45:59;7.88;;;2.42;;
52126;SDS011;38120;53.176;6.614;2022-09-09T12:48:36;6.55;;;1.98;;
52126;SDS011;38120;53.176;6.614;2022-09-09T12:51:05;8.20;;;2.55;;
52126;SDS011;38120;53.176;6.614;2022-09-09T12:53:41;6.25;;;2.25;;
52126;SDS011;38120;53.176;6.614;2022-09-09T12:56:07;7.07;;;2.25;;
52126;SDS011;38120;53.176;6.614;2022-09-09T12:58:44;9.43;;;2.55;;
52126;SDS011;38120;53.176;6.614;2022-09-09T13:01:26;7.55;;;2.33;;
52126;SDS011;38120;53.176;6.614;2022-09-09T13:03:57;5.40;;;2.00;;
52126;SDS011;38120;53.176;6.614;2022-09-09T13:06:30;6.78;;;2.35;;
52126;SDS011;38120;53.176;6.614;2022-09-09T13:08:58;6.13;;;2.63;;
52126;SDS011;38120;53.176;6.614;2022-09-09T13:11:26;8.85;;;2.63;;
52126;SDS011;38120;53.176;6.614;2022-09-09T13:13:56;6.45;;;2.72;;
52126;SDS011;38120;53.176;6.614;2022-09-09T13:16:28;8.88;;;2.38;;
52126;SDS011;38120;53.176;6.614;2022-09-09T13:19:06;5.75;;;1.83;;
52126;SDS011;38120;53.176;6.614;2022-09-09T13:21:39;6.25;;;1.92;;
52126;SDS011;38120;53.176;6.614;2022-09-09T13:24:05;5.50;;;1.98;;
52126;SDS011;38120;53.176;6.614;2022-09-09T13:26:54;8.48;;;1.98;;
52126;SDS011;38120;53.176;6.614;2022-09-09T13:29:21;5.65;;;2.58;;
52126;SDS011;38120;53.176;6.614;2022-09-09T13:31:47;6.43;;;1.85;;
52126;SDS011;38120;53.176;6.614;2022-09-09T13:37:06;6.25;;;2.42;;
52126;SDS011;38120;53.176;6.614;2022-09-09T13:39:50;6.95;;;1.95;;
52126;SDS011;38120;53.176;6.614;2022-09-09T13:42:22;6.18;;;2.20;;
52126;SDS011;38120;53.176;6.614;2022-09-09T13:44:54;5.85;;;1.88;;
52126;SDS011;38120;53.176;6.614;2022-09-09T13:47:22;10.20;;;2.40;;
52126;SDS011;38120;53.176;6.614;2022-09-09T13:49:54;7.07;;;2.22;;
52126;SDS011;38120;53.176;6.614;2022-09-09T13:52:20;7.15;;;2.17;;
52126;SDS011;38120;53.176;6.614;2022-09-09T13:54:50;6.85;;;1.90;;
52126;SDS011;38120;53.176;6.614;2022-09-09T13:57:18;5.20;;;2.35;;
52126;SDS011;38120;53.176;6.614;2022-09-09T13:59:45;6.13;;;2.15;;
52126;SDS011;38120;53.176;6.614;2022-09-09T14:02:12;2.10;;;0.95;;
52126;SDS011;38120;53.176;6.614;2022-09-09T14:04:39;4.10;;;0.90;;
52126;SDS011;38120;53.176;6.614;2022-09-09T14:07:08;2.53;;;0.80;;
52126;SDS011;38120;53.176;6.614;2022-09-09T14:09:38;0.95;;;0.60;;
52126;SDS011;38120;53.176;6.614;2022-09-09T14:14:30;2.85;;;0.90;;
52126;SDS011;38120;53.176;6.614;2022-09-09T14:16:55;1.77;;;0.60;;
52126;SDS011;38120;53.176;6.614;2022-09-09T14:19:21;1.90;;;0.75;;
52126;SDS011;38120;53.176;6.614;2022-09-09T14:21:47;2.72;;;1.00;;
52126;SDS011;38120;53.176;6.614;2022-09-09T14:24:13;4.97;;;1.00;;
52126;SDS011;38120;53.176;6.614;2022-09-09T14:26:39;3.50;;;1.00;;
52126;SDS011;38120;53.176;6.614;2022-09-09T14:29:05;5.10;;;1.13;;
52126;SDS011;38120;53.176;6.614;2022-09-09T14:31:31;4.03;;;1.50;;
52126;SDS011;38120;53.176;6.614;2022-09-09T14:33:57;4.38;;;1.00;;
52126;SDS011;38120;53.176;6.614;2022-09-09T14:38:49;4.15;;;1.48;;
52126;SDS011;38120;53.176;6.614;2022-09-09T14:41:16;4.82;;;1.58;;
52126;SDS011;38120;53.176;6.614;2022-09-09T14:43:44;9.63;;;2.40;;
52126;SDS011;38120;53.176;6.614;2022-09-09T14:46:11;9.85;;;2.03;;
52126;SDS011;38120;53.176;6.614;2022-09-09T14:48:39;7.57;;;1.88;;
52126;SDS011;38120;53.176;6.614;2022-09-09T14:51:19;4.93;;;2.30;;
52126;SDS011;38120;53.176;6.614;2022-09-09T14:53:47;4.90;;;2.30;;
52126;SDS011;38120;53.176;6.614;2022-09-09T14:56:16;5.72;;;1.77;;
52126;SDS011;38120;53.176;6.614;2022-09-09T14:58:43;6.53;;;1.90;;
52126;SDS011;38120;53.176;6.614;2022-09-09T15:01:19;4.70;;;1.80;;
52126;SDS011;38120;53.176;6.614;2022-09-09T15:03:49;9.13;;;2.35;;
52126;SDS011;38120;53.176;6.614;2022-09-09T15:06:19;3.85;;;1.90;;
52126;SDS011;38120;53.176;6.614;2022-09-09T15:08:46;3.67;;;1.95;;
